Time;durP1;ratioP1;P1;durP2;ratioP2;P2;SDS_P1;SDS_P2;PMS_P1;PMS_P2;Temp;Humidity;BMP_temperature;BMP_pressure;BME280_temperature;BME280_humidity;BME280_pressure;Samples;Min_cycle;Max_cycle;Signal;HPM_P1;HPM_P2
2023/12/22 00:00:53;;;;;;;3.80;2.03;;;;;;;3.80;78.11;94036.84;5135776;27;20443;-56
2023/12/22 00:03:22;;;;;;;11.60;2.83;;;;;;;3.87;77.44;94041.84;5135637;27;20466;-56
2023/12/22 00:05:52;;;;;;;3.70;2.57;;;;;;;3.81;77.62;94037.63;5134573;27;20438;-56
2023/12/22 00:08:20;;;;;;;2.37;2.17;;;;;;;3.64;78.43;94034.44;5135007;27;20523;-56
2023/12/22 00:10:49;;;;;;;6.90;3.17;;;;;;;3.67;79.19;94024.22;5134445;27;20958;-56
2023/12/22 00:13:18;;;;;;;6.63;1.93;;;;;;;3.68;78.96;94020.56;5134758;27;20943;-57
2023/12/22 00:15:46;;;;;;;2.73;2.10;;;;;;;3.61;78.83;94017.41;5120833;27;20509;-56
2023/12/22 00:18:15;;;;;;;2.03;1.93;;;;;;;3.54;80.82;94014.22;5135450;27;20812;-56
2023/12/22 00:20:43;;;;;;;4.20;2.30;;;;;;;3.46;82.40;94019.97;5135135;27;20926;-56
2023/12/22 00:23:13;;;;;;;3.80;2.10;;;;;;;3.27;84.61;94020.66;5135370;27;20550;-56
2023/12/22 00:25:42;;;;;;;5.53;2.60;;;;;;;3.33;86.37;94023.06;5135297;27;20867;-57
2023/12/22 00:28:11;;;;;;;3.90;2.50;;;;;;;3.42;85.28;94016.28;5135105;27;20469;-56
2023/12/22 00:30:39;;;;;;;2.57;2.47;;;;;;;3.15;87.89;94005.16;5123038;27;20433;-57
2023/12/22 00:33:08;;;;;;;4.93;2.80;;;;;;;3.25;87.82;94002.59;5135023;27;20449;-56
2023/12/22 00:35:37;;;;;;;5.87;2.53;;;;;;;3.25;87.35;94004.41;5135515;27;20445;-56
2023/12/22 00:38:06;;;;;;;1.73;1.60;;;;;;;3.05;89.72;93976.34;5134863;27;20438;-57
2023/12/22 00:40:36;;;;;;;1.97;1.80;;;;;;;3.06;90.00;93970.06;5134941;27;20466;-56
2023/12/22 00:43:04;;;;;;;3.60;3.40;;;;;;;3.02;92.69;93985.47;5135035;27;20509;-56
2023/12/22 00:45:33;;;;;;;4.83;1.37;;;;;;;3.20;91.16;93997.34;5134894;27;20434;-56
2023/12/22 00:48:02;;;;;;;1.47;1.47;;;;;;;3.21;90.15;93997.06;5135080;27;20478;-56
2023/12/22 00:50:30;;;;;;;1.70;1.23;;;;;;;3.18;91.08;93997.59;5134102;27;20434;-57
2023/12/22 00:52:59;;;;;;;0.70;0.70;;;;;;;3.00;95.66;93986.78;5134568;27;20441;-56
2023/12/22 00:55:28;;;;;;;2.27;2.10;;;;;;;2.86;96.70;93970.75;5134983;27;20818;-56
2023/12/22 00:57:57;;;;;;;3.60;2.40;;;;;;;2.68;97.34;93967.78;5134965;27;20431;-56
2023/12/22 01:00:26;;;;;;;10.03;1.80;;;;;;;2.92;98.10;93958.47;5135062;27;20445;-57
2023/12/22 01:02:55;;;;;;;8.13;2.47;;;;;;;3.13;95.47;93954.91;5134483;27;20513;-57
2023/12/22 01:05:23;;;;;;;6.10;2.20;;;;;;;3.20;93.22;93958.06;5134359;27;20438;-56
2023/12/22 01:07:52;;;;;;;6.80;2.00;;;;;;;3.31;91.72;93949.22;5133923;27;20434;-57
2023/12/22 01:10:21;;;;;;;2.70;2.33;;;;;;;3.21;92.65;93959.66;5134597;27;20438;-57
2023/12/22 01:12:49;;;;;;;4.50;3.80;;;;;;;3.55;90.55;93963.41;5133976;27;20438;-56
2023/12/22 01:15:19;;;;;;;3.90;1.77;;;;;;;3.42;90.66;93953.44;5133865;27;20487;-56
2023/12/22 01:17:48;;;;;;;1.40;1.30;;;;;;;3.64;89.64;93966.31;5134173;27;21009;-57
2023/12/22 01:20:17;;;;;;;2.80;1.67;;;;;;;3.56;89.50;93953.72;5134106;27;20442;-56
2023/12/22 01:22:46;;;;;;;2.03;1.93;;;;;;;3.52;88.94;93936.94;5134259;27;20465;-56
2023/12/22 01:25:15;;;;;;;2.23;2.13;;;;;;;3.57;88.60;93939.56;5133867;27;20431;-55
2023/12/22 01:27:43;;;;;;;2.87;2.67;;;;;;;3.52;89.40;93948.22;5134418;27;20470;-57
2023/12/22 01:30:12;;;;;;;2.37;1.50;;;;;;;3.65;89.08;93952.97;5133973;27;20481;-57
2023/12/22 01:32:42;;;;;;;3.70;1.67;;;;;;;3.52;89.20;93942.97;5134089;27;20438;-57
2023/12/22 01:35:10;;;;;;;14.67;2.70;;;;;;;3.55;89.95;93952.16;5133585;27;21045;-57
2023/12/22 01:37:39;;;;;;;4.77;2.60;;;;;;;3.24;89.47;93892.91;5133507;27;20445;-57
2023/12/22 01:40:09;;;;;;;2.20;2.00;;;;;;;3.59;89.01;93959.22;5133923;27;20431;-57
2023/12/22 01:42:39;;;;;;;1.90;1.80;;;;;;;3.63;89.59;93949.81;5133699;27;20439;-57
2023/12/22 01:45:10;;;;;;;2.13;2.03;;;;;;;3.70;88.40;93925.97;5133789;27;20938;-57
2023/12/22 01:47:41;;;;;;;6.40;2.47;;;;;;;3.81;87.66;93933.59;5133464;27;20430;-57
2023/12/22 01:50:11;;;;;;;3.40;3.10;;;;;;;3.82;87.72;93934.38;5133834;27;20470;-57
2023/12/22 01:52:42;;;;;;;1.50;1.40;;;;;;;3.83;87.47;93910.53;5133016;27;20443;-57
2023/12/22 01:55:13;;;;;;;4.10;3.57;;;;;;;3.91;87.15;93906.63;5133670;27;20522;-57
2023/12/22 01:57:42;;;;;;;5.07;2.97;;;;;;;3.77;87.84;93898.47;5132898;27;20954;-57
2023/12/22 02:00:13;;;;;;;1.00;1.00;;;;;;;3.89;87.67;93889.56;5133465;27;20434;-57
2023/12/22 02:02:43;;;;;;;4.20;3.50;;;;;;;3.88;87.41;93882.75;5132982;27;20470;-57
2023/12/22 02:05:12;;;;;;;2.10;1.77;;;;;;;3.94;86.63;93860.75;5133568;27;20449;-58
2023/12/22 02:07:43;;;;;;;1.67;1.57;;;;;;;3.99;86.12;93871.22;5131215;27;20446;-57
2023/12/22 02:10:11;;;;;;;18.43;3.97;;;;;;;4.01;86.24;93872.53;5112927;28;20481;-57
2023/12/22 02:12:40;;;;;;;2.63;2.43;;;;;;;3.62;87.06;93879.34;5132917;27;20442;-56
2023/12/22 02:15:10;;;;;;;1.27;1.23;;;;;;;3.74;87.75;93874.66;5133278;27;20958;-57
2023/12/22 02:17:50;;;;;;;2.00;1.90;;;;;;;3.70;88.04;93876.19;5106697;27;20775;-56
2023/12/22 02:20:19;;;;;;;4.63;1.20;;;;;;;3.83;87.73;93879.09;5132656;27;20427;-57
2023/12/22 02:22:52;;;;;;;6.40;1.60;;;;;;;3.96;86.73;93874.38;5132995;27;20980;-56
2023/12/22 02:25:21;;;;;;;1.70;0.50;;;;;;;4.00;86.02;93863.09;5132698;27;20434;-57
2023/12/22 02:27:51;;;;;;;1.60;1.30;;;;;;;3.60;87.86;93861.28;5132577;27;20507;-57
2023/12/22 02:30:25;;;;;;;1.10;1.00;;;;;;;3.85;87.04;93869.13;5132470;27;20473;-57
2023/12/22 02:32:58;;;;;;;1.53;1.00;;;;;;;4.00;86.03;93891.94;5133260;27;20438;-58
2023/12/22 02:35:30;;;;;;;1.67;1.57;;;;;;;4.09;85.08;93886.94;5133151;27;20458;-57
2023/12/22 02:38:02;;;;;;;1.50;1.40;;;;;;;3.85;85.95;93890.09;5132176;27;20449;-56
2023/12/22 02:40:32;;;;;;;3.23;1.43;;;;;;;3.89;86.58;93873.84;5132654;27;20477;-58
2023/12/22 02:43:02;;;;;;;3.40;3.10;;;;;;;3.70;86.22;93840.31;5132578;27;20431;-57
2023/12/22 02:45:32;;;;;;;1.77;1.67;;;;;;;3.82;86.52;93874.91;5132626;27;20439;-56
2023/12/22 02:48:00;;;;;;;1.07;1.00;;;;;;;3.89;85.56;93864.16;5132008;27;20433;-56
2023/12/22 02:50:29;;;;;;;1.37;1.37;;;;;;;4.01;85.27;93866.50;5132854;27;20481;-57
2023/12/22 02:52:58;;;;;;;2.20;1.70;;;;;;;3.90;86.07;93857.84;5132723;27;20487;-56
2023/12/22 02:55:28;;;;;;;2.13;1.50;;;;;;;4.01;85.74;93858.66;5132860;27;20446;-56
2023/12/22 02:57:56;;;;;;;2.47;1.00;;;;;;;4.00;85.28;93863.09;5132455;27;20978;-56
2023/12/22 03:00:25;;;;;;;3.43;2.17;;;;;;;3.99;85.72;93863.38;5132550;27;20443;-56
2023/12/22 03:02:54;;;;;;;1.93;1.83;;;;;;;4.01;85.32;93856.81;5132186;27;20448;-56
2023/12/22 03:05:22;;;;;;;1.63;1.47;;;;;;;3.93;85.97;93854.72;5132402;27;20454;-56
2023/12/22 03:07:51;;;;;;;0.97;0.97;;;;;;;3.99;85.27;93852.88;5132079;27;20456;-56
2023/12/22 03:10:20;;;;;;;0.70;0.70;;;;;;;4.03;85.03;93859.16;5132423;28;20980;-56
2023/12/22 03:12:50;;;;;;;15.17;1.73;;;;;;;3.89;85.02;93845.03;5134443;27;20878;-56
2023/12/22 03:15:19;;;;;;;1.33;1.23;;;;;;;3.35;87.33;93819.34;5139032;27;21090;-56
2023/12/22 03:17:47;;;;;;;5.20;2.73;;;;;;;3.57;87.44;93834.81;5139139;27;20470;-57
2023/12/22 03:20:16;;;;;;;6.33;2.30;;;;;;;3.03;90.32;93845.75;5138724;27;20438;-57
2023/12/22 03:22:45;;;;;;;4.67;1.40;;;;;;;2.90;92.49;93838.38;5138992;27;20938;-57
2023/12/22 03:25:13;;;;;;;4.90;3.20;;;;;;;2.74;95.78;93846.41;5138899;27;20521;-57
2023/12/22 03:27:42;;;;;;;6.63;3.53;;;;;;;2.48;95.60;93854.16;5138785;27;20441;-57
2023/12/22 03:30:13;;;;;;;4.27;2.50;;;;;;;1.88;100.00;93849.38;5139212;27;20866;-56
2023/12/22 03:32:42;;;;;;;2.10;1.63;;;;;;;1.85;100.00;93833.41;5138754;27;20487;-57
2023/12/22 03:35:10;;;;;;;4.07;3.77;;;;;;;1.91;100.00;93832.41;5138485;27;20434;-57
2023/12/22 03:37:39;;;;;;;3.67;1.60;;;;;;;2.28;100.00;93843.59;5138426;27;20439;-57
2023/12/22 03:40:09;;;;;;;2.40;1.93;;;;;;;2.46;100.00;93845.78;5138208;27;21153;-56
2023/12/22 03:42:38;;;;;;;2.63;1.03;;;;;;;1.89;100.00;93811.78;5139192;27;20449;-56
2023/12/22 03:45:07;;;;;;;1.67;1.57;;;;;;;2.48;100.00;93835.84;5112194;27;20906;-57
2023/12/22 03:47:37;;;;;;;1.90;1.80;;;;;;;2.68;97.22;93818.69;5138926;27;20438;-56
2023/12/22 03:50:08;;;;;;;5.13;3.47;;;;;;;2.68;98.41;93844.84;5139161;27;20494;-57
2023/12/22 03:52:37;;;;;;;2.90;2.70;;;;;;;1.71;96.69;93667.78;5138498;27;20530;-57
2023/12/22 03:55:06;;;;;;;0.83;0.83;;;;;;;3.00;95.14;93841.03;5138225;27;20540;-57
2023/12/22 03:57:35;;;;;;;1.60;1.50;;;;;;;2.88;95.18;93842.31;5138017;27;20802;-57
2023/12/22 04:00:04;;;;;;;1.60;1.50;;;;;;;2.90;94.78;93837.59;5138889;27;20442;-57
2023/12/22 04:02:34;;;;;;;3.23;1.80;;;;;;;2.82;95.25;93828.41;5138622;27;20464;-57
2023/12/22 04:05:05;;;;;;;2.77;1.53;;;;;;;2.92;95.24;93838.13;5139044;27;20442;-57
2023/12/22 04:07:34;;;;;;;3.30;1.33;;;;;;;3.02;94.11;93831.06;5138718;27;20467;-57
2023/12/22 04:10:02;;;;;;;1.83;1.73;;;;;;;2.90;93.71;93800.97;5138432;27;20969;-58
2023/12/22 04:12:31;;;;;;;1.50;1.40;;;;;;;2.95;93.97;93833.16;5136723;27;20438;-56
2023/12/22 04:14:59;;;;;;;4.10;1.50;;;;;;;3.06;94.38;93837.34;5138490;27;20491;-57
2023/12/22 04:17:28;;;;;;;1.37;1.27;;;;;;;3.13;93.41;93826.66;5138723;27;20458;-58
2023/12/22 04:19:56;;;;;;;2.67;2.50;;;;;;;3.21;93.42;93828.78;5138290;27;20491;-56
2023/12/22 04:22:26;;;;;;;2.70;1.73;;;;;;;3.21;92.26;93810.44;5138021;27;20442;-58
2023/12/22 04:24:55;;;;;;;2.73;1.47;;;;;;;3.25;92.00;93818.53;5134591;27;20431;-57
2023/12/22 04:27:23;;;;;;;7.50;3.10;;;;;;;3.01;93.46;93813.78;5135436;27;20434;-58
2023/12/22 04:29:52;;;;;;;2.57;2.47;;;;;;;3.07;92.71;93812.78;5135037;27;20435;-58
2023/12/22 04:32:20;;;;;;;2.87;1.87;;;;;;;2.90;92.60;93819.28;5135558;27;20516;-57
2023/12/22 04:34:49;;;;;;;2.60;2.40;;;;;;;2.55;94.67;93820.72;5134805;27;20442;-56
2023/12/22 04:37:18;;;;;;;2.50;2.30;;;;;;;2.87;94.07;93830.25;5134672;27;20444;-57
2023/12/22 04:39:48;;;;;;;2.33;2.23;;;;;;;3.03;92.28;93824.03;5135375;27;20435;-57
2023/12/22 04:42:16;;;;;;;1.90;1.80;;;;;;;2.72;92.94;93824.97;5135399;27;20809;-57
2023/12/22 04:44:45;;;;;;;1.47;1.20;;;;;;;2.81;93.04;93818.22;5134335;27;20434;-57
2023/12/22 04:47:14;;;;;;;2.97;2.77;;;;;;;2.93;91.87;93822.16;5134868;27;20491;-57
2023/12/22 04:49:42;;;;;;;3.03;1.37;;;;;;;2.92;91.53;93828.44;5134843;27;20491;-56
2023/12/22 04:52:12;;;;;;;3.23;2.30;;;;;;;3.01;92.26;93820.88;5134573;27;20546;-56
2023/12/22 04:54:41;;;;;;;4.00;2.20;;;;;;;3.15;91.05;93816.72;5134216;27;20434;-57
2023/12/22 04:57:11;;;;;;;2.43;1.20;;;;;;;3.33;90.23;93818.84;5134576;27;20438;-57
2023/12/22 04:59:42;;;;;;;2.63;2.43;;;;;;;3.33;89.19;93795.25;5134516;27;20430;-56
2023/12/22 05:02:11;;;;;;;9.40;2.90;;;;;;;3.30;90.26;93805.47;5134383;27;20439;-57
2023/12/22 05:04:39;;;;;;;2.27;2.10;;;;;;;3.32;90.14;93787.66;5107720;27;20461;-57
2023/12/22 05:07:09;;;;;;;2.60;2.40;;;;;;;3.42;90.41;93801.53;5134637;27;20459;-57
2023/12/22 05:09:38;;;;;;;4.67;4.47;;;;;;;3.31;90.45;93794.75;5134313;27;20468;-58
2023/12/22 05:12:07;;;;;;;2.67;2.30;;;;;;;3.37;89.68;93779.81;5134250;27;20474;-56
2023/12/22 05:14:37;;;;;;;3.83;1.93;;;;;;;3.45;89.18;93780.06;5134335;27;20520;-57
2023/12/22 05:17:05;;;;;;;2.53;2.43;;;;;;;3.25;89.21;93760.97;5133940;27;20439;-57
2023/12/22 05:19:34;;;;;;;2.40;2.30;;;;;;;3.16;91.09;93771.19;5134248;27;20426;-57
2023/12/22 05:22:03;;;;;;;3.37;3.13;;;;;;;3.05;91.21;93766.97;5134150;27;20466;-58
2023/12/22 05:24:31;;;;;;;8.50;5.87;;;;;;;2.75;93.37;93769.53;5134229;27;20431;-57
2023/12/22 05:27:00;;;;;;;7.80;4.60;;;;;;;2.20;97.39;93765.69;5133906;27;20460;-57
2023/12/22 05:29:28;;;;;;;5.97;4.33;;;;;;;2.10;100.00;93796.22;5124585;27;20439;-57
2023/12/22 05:31:59;;;;;;;7.43;4.20;;;;;;;2.41;100.00;93772.56;5133406;27;20478;-57
2023/12/22 05:34:28;;;;;;;3.63;3.33;;;;;;;2.52;100.00;93781.25;5133491;27;20437;-56
2023/12/22 05:36:56;;;;;;;5.00;4.10;;;;;;;2.96;97.38;93776.38;5129469;27;20439;-57
2023/12/22 05:39:25;;;;;;;2.13;1.80;;;;;;;2.96;96.81;93786.84;5130077;27;20483;-56
2023/12/22 05:41:54;;;;;;;2.17;1.90;;;;;;;2.94;95.24;93773.22;5133538;27;20438;-57
2023/12/22 05:44:24;;;;;;;5.23;2.10;;;;;;;3.05;94.15;93773.00;5119918;27;20435;-57
2023/12/22 05:46:52;;;;;;;2.33;2.20;;;;;;;3.16;94.43;93777.19;5132741;27;20518;-58
2023/12/22 05:49:23;;;;;;;1.40;1.30;;;;;;;2.98;94.00;93774.28;5133195;27;20434;-57
2023/12/22 05:51:52;;;;;;;5.40;2.03;;;;;;;3.16;94.43;93773.78;5133192;27;20493;-57
2023/12/22 05:54:21;;;;;;;1.83;1.73;;;;;;;3.06;94.82;93777.16;5133209;27;20447;-57
2023/12/22 05:56:51;;;;;;;1.93;1.83;;;;;;;2.91;96.15;93765.91;5133136;27;20449;-56
2023/12/22 05:59:21;;;;;;;4.73;1.43;;;;;;;3.24;95.10;93769.88;5133162;27;20431;-56
2023/12/22 06:01:54;;;;;;;9.33;1.13;;;;;;;3.37;92.51;93777.19;5132862;27;20446;-56
2023/12/22 06:04:24;;;;;;;3.03;1.83;;;;;;;3.40;92.91;93777.47;5133385;27;20433;-56
2023/12/22 06:06:53;;;;;;;2.80;1.80;;;;;;;3.34;92.66;93760.16;5133414;27;20434;-56
2023/12/22 06:09:22;;;;;;;1.70;1.60;;;;;;;3.50;92.33;93782.69;5132279;27;20434;-56
2023/12/22 06:11:50;;;;;;;7.70;3.73;;;;;;;3.51;92.75;93779.03;5133849;27;20466;-56
2023/12/22 06:14:19;;;;;;;3.20;3.00;;;;;;;3.65;91.66;93779.28;5132507;27;20438;-56
2023/12/22 06:16:47;;;;;;;2.00;1.90;;;;;;;3.46;91.73;93781.66;5133242;27;20443;-56
2023/12/22 06:19:16;;;;;;;2.27;2.17;;;;;;;3.56;92.23;93780.88;5106531;27;20454;-56
2023/12/22 06:21:46;;;;;;;2.90;2.47;;;;;;;3.62;91.64;93775.34;5132578;27;20580;-56
2023/12/22 06:24:16;;;;;;;2.53;2.30;;;;;;;3.72;91.01;93780.56;5133118;27;20840;-56
2023/12/22 06:26:44;;;;;;;12.53;3.43;;;;;;;3.92;89.53;93779.78;5132719;27;20522;-56
2023/12/22 06:29:13;;;;;;;4.60;2.80;;;;;;;3.95;88.42;93775.84;5133391;27;20526;-57
2023/12/22 06:31:41;;;;;;;3.07;2.63;;;;;;;4.05;88.31;93783.69;5132534;27;20513;-57
2023/12/22 06:34:10;;;;;;;3.90;3.60;;;;;;;3.78;89.33;93779.53;5132708;27;20521;-57
2023/12/22 06:36:38;;;;;;;4.30;4.00;;;;;;;3.57;91.36;93783.22;5132526;27;20442;-56
2023/12/22 06:39:08;;;;;;;9.03;4.73;;;;;;;3.37;92.75;93770.13;5133247;27;20900;-58
2023/12/22 06:41:37;;;;;;;6.27;2.80;;;;;;;3.64;91.87;93773.25;5132121;27;20438;-57
2023/12/22 06:44:06;;;;;;;5.57;2.50;;;;;;;3.80;90.48;93761.72;5133059;27;20491;-57
2023/12/22 06:46:34;;;;;;;3.00;2.80;;;;;;;3.89;89.98;93769.81;5132688;27;20517;-57
2023/12/22 06:49:04;;;;;;;2.00;1.90;;;;;;;3.96;89.60;93777.41;5131899;27;20434;-57
2023/12/22 06:51:35;;;;;;;2.20;1.40;;;;;;;4.00;89.43;93779.22;5132438;27;20510;-57
2023/12/22 06:54:05;;;;;;;2.17;2.07;;;;;;;4.04;89.59;93767.16;5132508;27;20954;-57
2023/12/22 06:56:36;;;;;;;8.50;5.60;;;;;;;4.16;89.23;93779.97;5106803;27;20442;-57
2023/12/22 06:59:05;;;;;;;8.30;2.73;;;;;;;4.30;88.30;93775.75;5132485;27;20525;-57
2023/12/22 07:01:35;;;;;;;2.03;1.93;;;;;;;4.36;87.73;93785.94;5132488;27;20442;-59
2023/12/22 07:04:06;;;;;;;2.57;2.47;;;;;;;4.19;87.38;93742.75;5131906;27;20437;-58
2023/12/22 07:06:35;;;;;;;2.17;2.07;;;;;;;4.78;85.89;93776.84;5132437;27;20470;-58
2023/12/22 07:09:29;;;;;;;3.17;1.93;;;;;;;4.62;86.33;93777.97;5132410;27;20939;-58
2023/12/22 07:11:59;;;;;;;4.87;2.53;;;;;;;4.63;85.41;93782.94;5132324;27;20485;-59
2023/12/22 07:14:28;;;;;;;3.60;2.83;;;;;;;4.41;85.47;93774.66;5132739;27;20518;-57
2023/12/22 07:16:58;;;;;;;4.30;4.07;;;;;;;4.09;86.82;93763.75;5131467;28;20505;-57
2023/12/22 07:19:26;;;;;;;10.20;6.40;;;;;;;4.26;87.64;93772.88;5132278;27;20434;-57
2023/12/22 07:21:55;;;;;;;19.33;5.20;;;;;;;4.40;86.96;93773.09;5131525;27;20439;-58
2023/12/22 07:24:23;;;;;;;5.07;4.73;;;;;;;4.58;85.56;93772.47;5132161;27;20438;-58
2023/12/22 07:26:52;;;;;;;7.77;3.40;;;;;;;4.71;84.65;93773.72;5132262;27;20423;-57
2023/12/22 07:29:23;;;;;;;3.07;2.87;;;;;;;4.72;84.57;93775.31;5132312;28;20833;-57
2023/12/22 07:31:52;;;;;;;3.50;2.30;;;;;;;4.66;84.68;93771.91;5131626;28;20470;-58
2023/12/22 07:34:22;;;;;;;5.73;4.33;;;;;;;4.83;84.02;93769.72;5131507;28;20561;-57
2023/12/22 07:36:53;;;;;;;3.03;2.93;;;;;;;4.57;84.67;93765.66;5131878;28;20487;-57
2023/12/22 07:39:33;;;;;;;4.33;4.03;;;;;;;4.93;83.57;93769.66;5131547;28;20434;-58
2023/12/22 07:42:06;;;;;;;5.20;4.80;;;;;;;4.88;82.77;93777.56;5132064;27;20438;-57
2023/12/22 07:44:36;;;;;;;5.77;4.80;;;;;;;4.69;82.86;93787.13;5132129;28;20492;-58
2023/12/22 07:47:07;;;;;;;8.90;4.10;;;;;;;4.46;84.75;93782.50;5132277;27;20465;-57
2023/12/22 07:49:35;;;;;;;7.97;4.73;;;;;;;4.53;85.06;93772.50;5130247;28;20466;-58
2023/12/22 07:52:05;;;;;;;21.13;6.43;;;;;;;4.31;85.77;93783.34;5131832;28;20482;-59
2023/12/22 07:54:33;;;;;;;9.73;4.30;;;;;;;4.43;85.73;93793.50;5131757;27;20443;-57
2023/12/22 07:57:02;;;;;;;9.00;3.63;;;;;;;4.49;85.38;93785.38;5132519;27;20438;-58
2023/12/22 07:59:30;;;;;;;6.67;4.63;;;;;;;4.50;85.16;93794.03;5133361;27;20438;-58
2023/12/22 08:02:01;;;;;;;8.30;6.13;;;;;;;4.49;84.90;93787.22;5136433;27;20782;-58
2023/12/22 08:04:30;;;;;;;4.80;3.57;;;;;;;4.87;83.68;93790.97;5135795;27;20513;-58
2023/12/22 08:06:59;;;;;;;1.73;1.67;;;;;;;5.22;82.03;93788.13;5135632;27;20815;-58
2023/12/22 08:09:27;;;;;;;3.40;1.80;;;;;;;4.75;82.70;93799.19;5135894;27;20521;-58
2023/12/22 08:11:56;;;;;;;3.30;3.17;;;;;;;4.70;83.84;93791.31;5135347;27;20488;-57
2023/12/22 08:14:25;;;;;;;6.30;2.23;;;;;;;5.02;83.89;93799.56;5109651;27;20853;-59
2023/12/22 08:16:54;;;;;;;3.80;3.50;;;;;;;5.04;83.30;93794.00;5135251;27;20438;-58
2023/12/22 08:19:25;;;;;;;3.70;2.40;;;;;;;4.94;83.32;93794.88;5135459;27;20431;-58
2023/12/22 08:21:58;;;;;;;3.90;3.50;;;;;;;4.97;83.13;93796.94;5134109;27;21033;-58
2023/12/22 08:24:30;;;;;;;5.97;5.47;;;;;;;5.14;82.03;93799.22;5124710;27;20454;-59
2023/12/22 08:26:59;;;;;;;6.23;2.30;;;;;;;4.96;82.68;93790.13;5114421;28;20900;-59
2023/12/22 08:29:27;;;;;;;3.67;3.37;;;;;;;5.14;82.78;93791.34;5128030;27;20522;-55
2023/12/22 08:31:56;;;;;;;2.90;2.70;;;;;;;5.27;81.50;93785.47;5108458;27;20464;-58
2023/12/22 08:34:26;;;;;;;4.50;3.17;;;;;;;5.21;80.64;93788.41;5134739;27;20997;-59
2023/12/22 08:36:54;;;;;;;3.60;2.63;;;;;;;5.39;80.30;93785.91;5134781;27;20438;-58
2023/12/22 08:39:24;;;;;;;2.13;1.87;;;;;;;5.57;79.57;93789.72;5135039;27;20462;-58
2023/12/22 08:41:53;;;;;;;4.67;3.20;;;;;;;4.87;80.91;93760.25;5134882;27;20430;-58
2023/12/22 08:44:22;;;;;;;9.20;2.93;;;;;;;5.44;79.19;93771.97;5134590;27;20587;-58
2023/12/22 08:46:50;;;;;;;2.77;2.60;;;;;;;5.78;78.62;93770.09;5135214;27;20513;-59
2023/12/22 08:49:19;;;;;;;7.17;3.57;;;;;;;5.70;78.13;93786.47;5134581;27;20513;-59
2023/12/22 08:51:50;;;;;;;4.33;3.50;;;;;;;5.55;78.07;93791.84;5134718;27;20493;-60
2023/12/22 08:54:19;;;;;;;4.97;3.00;;;;;;;5.52;79.34;93797.63;5121427;27;20538;-59
2023/12/22 08:56:47;;;;;;;4.10;3.80;;;;;;;5.44;81.11;93790.38;5134896;27;20822;-59
2023/12/22 08:59:16;;;;;;;3.70;3.23;;;;;;;5.56;79.67;93791.59;5135039;27;20872;-61
2023/12/22 09:01:45;;;;;;;4.73;4.53;;;;;;;5.81;79.05;93789.78;5134464;27;20442;-59
2023/12/22 09:04:14;;;;;;;6.20;3.00;;;;;;;5.99;77.97;93797.03;5134673;27;20823;-59
2023/12/22 09:06:43;;;;;;;2.33;2.17;;;;;;;6.04;77.38;93786.44;5134258;27;20435;-59
2023/12/22 09:09:13;;;;;;;7.43;5.70;;;;;;;5.96;77.73;93789.69;5134295;27;20445;-60
2023/12/22 09:11:42;;;;;;;11.67;3.43;;;;;;;5.81;78.49;93771.38;5133161;27;20449;-59
2023/12/22 09:14:10;;;;;;;5.60;4.97;;;;;;;5.78;79.17;93780.59;5130151;27;20474;-59
2023/12/22 09:16:39;;;;;;;3.40;3.10;;;;;;;5.73;79.64;93778.03;5134749;27;20938;-60
2023/12/22 09:19:08;;;;;;;5.70;5.20;;;;;;;5.72;79.32;93771.19;5134225;27;20830;-59
2023/12/22 09:21:36;;;;;;;4.83;4.43;;;;;;;5.51;79.57;93772.44;5134447;27;20513;-60
2023/12/22 09:24:06;;;;;;;8.93;5.07;;;;;;;5.41;82.06;93770.69;5134419;27;20915;-59
2023/12/22 09:26:36;;;;;;;5.43;4.90;;;;;;;5.75;81.11;93765.38;5134514;27;20434;-61
2023/12/22 09:29:04;;;;;;;5.80;3.07;;;;;;;5.65;80.66;93741.81;5133612;27;20491;-60
2023/12/22 09:31:33;;;;;;;4.93;4.10;;;;;;;5.89;80.89;93761.09;5134357;27;20479;-60
2023/12/22 09:34:02;;;;;;;8.00;3.50;;;;;;;6.10;79.47;93767.72;5133546;27;20561;-59
2023/12/22 09:36:31;;;;;;;6.47;3.53;;;;;;;6.15;78.79;93748.44;5134203;27;20477;-61
2023/12/22 09:39:00;;;;;;;4.47;4.07;;;;;;;6.44;78.32;93751.03;5133927;27;20439;-61
2023/12/22 09:41:29;;;;;;;3.77;2.83;;;;;;;6.50;76.51;93755.97;5134072;27;20445;-60
2023/12/22 09:44:01;;;;;;;5.73;5.27;;;;;;;6.64;76.75;93750.78;5133723;27;20434;-60
2023/12/22 09:46:31;;;;;;;4.63;4.00;;;;;;;6.94;76.04;93753.81;5133793;27;20489;-59
2023/12/22 09:49:01;;;;;;;5.70;3.93;;;;;;;7.21;74.96;93753.16;5133806;27;20426;-59
2023/12/22 09:51:31;;;;;;;5.60;5.10;;;;;;;7.20;73.67;93738.44;5132842;27;20466;-59
2023/12/22 09:54:01;;;;;;;4.30;4.10;;;;;;;7.40;73.48;93738.13;5133178;27;20523;-60
2023/12/22 09:56:34;;;;;;;9.70;4.00;;;;;;;7.87;71.57;93746.88;5133120;27;20443;-60
2023/12/22 09:59:04;;;;;;;9.63;3.53;;;;;;;8.33;71.98;93744.97;5133122;27;20438;-61
2023/12/22 10:01:35;;;;;;;2.70;2.43;;;;;;;8.73;68.02;93738.09;5132419;27;20439;-60
2023/12/22 10:04:04;;;;;;;3.00;2.90;;;;;;;7.94;66.43;93557.34;5133338;27;20438;-59
2023/12/22 10:06:33;;;;;;;5.73;4.17;;;;;;;8.26;68.02;93729.53;5133339;27;20426;-61
2023/12/22 10:09:05;;;;;;;4.77;4.37;;;;;;;8.41;68.47;93725.03;5133098;27;20473;-61
2023/12/22 10:11:34;;;;;;;5.73;4.30;;;;;;;8.25;68.79;93727.94;5133538;27;20447;-60
2023/12/22 10:14:05;;;;;;;3.70;2.80;;;;;;;8.66;68.47;93725.31;5132862;27;21042;-60
2023/12/22 10:16:36;;;;;;;2.97;2.77;;;;;;;9.19;66.80;93712.28;5133614;27;20430;-61
2023/12/22 10:19:06;;;;;;;17.47;5.10;;;;;;;9.58;66.55;93711.63;5132972;27;20439;-60
2023/12/22 10:21:35;;;;;;;6.20;3.57;;;;;;;9.70;66.01;93705.78;5132990;27;20430;-60
2023/12/22 10:24:04;;;;;;;5.87;4.37;;;;;;;8.64;67.42;93710.84;5125899;27;20439;-60
2023/12/22 10:26:32;;;;;;;4.80;4.33;;;;;;;8.27;68.57;93717.13;5125940;27;20449;-60
2023/12/22 10:29:01;;;;;;;15.60;3.20;;;;;;;8.45;68.50;93710.94;5106491;27;20434;-60
2023/12/22 10:31:41;;;;;;;3.57;3.37;;;;;;;8.35;69.78;93708.50;5132660;27;20453;-60
2023/12/22 10:34:09;;;;;;;2.57;2.47;;;;;;;8.39;68.40;93698.94;5133220;27;20946;-60
2023/12/22 10:36:38;;;;;;;3.37;3.10;;;;;;;8.36;68.59;93702.16;5132969;27;20825;-60
2023/12/22 10:39:09;;;;;;;5.23;2.80;;;;;;;9.00;68.47;93697.66;5133367;27;20434;-64
2023/12/22 10:41:37;;;;;;;1.93;1.83;;;;;;;10.43;64.67;93681.38;5132594;27;20462;-60
2023/12/22 10:44:06;;;;;;;2.37;2.27;;;;;;;11.06;63.39;93670.25;5132482;27;20442;-60
2023/12/22 10:46:36;;;;;;;2.33;2.13;;;;;;;10.96;61.51;93663.41;5132546;27;20513;-61
2023/12/22 10:49:05;;;;;;;3.47;3.10;;;;;;;11.35;59.67;93681.81;5132941;27;20949;-60
2023/12/22 10:51:34;;;;;;;7.90;3.53;;;;;;;11.63;59.78;93679.59;5126118;27;20498;-61
2023/12/22 10:54:06;;;;;;;4.23;3.90;;;;;;;11.89;59.02;93666.31;5112459;28;20636;-60
2023/12/22 10:56:35;;;;;;;5.00;4.73;;;;;;;12.03;58.55;93658.91;5123089;27;20932;-60
2023/12/22 10:59:04;;;;;;;3.07;2.87;;;;;;;11.87;56.94;93648.03;5125000;27;20454;-59
2023/12/22 11:01:38;;;;;;;10.20;5.20;;;;;;;12.44;56.01;93637.81;5132497;27;20434;-58
2023/12/22 11:04:09;;;;;;;21.77;3.93;;;;;;;11.75;56.80;93629.34;5131253;27;20469;-58
2023/12/22 11:06:39;;;;;;;8.00;5.07;;;;;;;12.12;57.22;93640.31;5132347;27;20466;-59
2023/12/22 11:09:10;;;;;;;5.97;4.00;;;;;;;12.39;55.64;93635.31;5132059;27;20495;-56
2023/12/22 11:11:39;;;;;;;10.50;4.17;;;;;;;11.18;56.94;93649.97;5132224;27;20487;-57
2023/12/22 11:14:09;;;;;;;1.50;1.40;;;;;;;10.93;58.41;93650.75;5126390;27;20467;-58
2023/12/22 11:16:38;;;;;;;4.43;2.30;;;;;;;10.26;59.01;93662.81;5124011;28;20446;-56
2023/12/22 11:19:10;;;;;;;2.73;1.97;;;;;;;10.48;58.98;93641.50;5132322;27;20439;-55
2023/12/22 11:21:41;;;;;;;3.77;2.27;;;;;;;11.29;57.83;93667.16;5132278;27;20489;-55
2023/12/22 11:24:12;;;;;;;0.70;0.70;;;;;;;11.68;57.64;93665.38;5132395;28;20899;-54
2023/12/22 11:26:43;;;;;;;1.57;1.47;;;;;;;12.81;53.69;93653.97;5132049;27;20450;-55
2023/12/22 11:29:12;;;;;;;1.43;0.93;;;;;;;13.10;52.78;93616.75;5132628;28;20438;-55
2023/12/22 11:31:42;;;;;;;0.83;0.83;;;;;;;14.25;52.50;93635.13;5132247;28;20457;-55
2023/12/22 11:34:13;;;;;;;5.83;1.53;;;;;;;15.39;50.43;93636.63;5133754;27;20469;-64
2023/12/22 11:36:48;;;;;;;4.93;2.20;;;;;;;15.53;47.74;93615.72;5136043;27;20509;-63
2023/12/22 11:39:17;;;;;;;1.67;1.57;;;;;;;14.99;47.53;93609.97;5136479;27;20438;-63
2023/12/22 11:41:48;;;;;;;11.10;1.63;;;;;;;13.76;48.70;93506.47;5135604;27;20430;-66
2023/12/22 11:44:16;;;;;;;4.87;2.20;;;;;;;14.29;49.36;93627.25;5136157;27;21009;-63
2023/12/22 11:46:47;;;;;;;1.17;1.17;;;;;;;14.45;49.40;93617.50;5109308;27;20435;-62
2023/12/22 11:49:17;;;;;;;0.80;0.60;;;;;;;14.19;49.67;93604.50;5130685;27;20442;-62